createdAt,value
2023-08-25T01:14:51.166Z,100.00
2023-08-25T01:18:56.383Z,100.00
2023-08-25T01:23:10.767Z,100.00
2023-08-25T01:27:15.232Z,100.00
2023-08-25T01:31:20.886Z,100.00
2023-08-25T01:35:39.683Z,100.00
2023-08-25T01:39:44.844Z,100.00
2023-08-25T01:43:51.695Z,100.00
2023-08-25T01:47:56.799Z,100.00
2023-08-25T01:52:00.846Z,100.00
2023-08-25T01:56:03.853Z,100.00
2023-08-25T02:00:09.840Z,100.00
2023-08-25T02:04:12.861Z,100.00
2023-08-25T02:08:15.417Z,100.00
2023-08-25T02:12:19.496Z,100.00
2023-08-25T02:16:27.043Z,100.00
2023-08-25T02:20:29.996Z,100.00
2023-08-25T02:24:32.692Z,100.00
2023-08-25T02:28:36.146Z,100.00
2023-08-25T02:32:40.344Z,100.00
2023-08-25T02:36:43.351Z,100.00
2023-08-25T02:40:46.310Z,100.00
2023-08-25T02:44:49.348Z,100.00
2023-08-25T02:48:53.674Z,100.00
2023-08-25T02:52:58.194Z,100.00
2023-08-25T02:57:01.272Z,100.00
2023-08-25T03:01:13.161Z,100.00
2023-08-25T03:05:17.947Z,100.00
2023-08-25T03:09:20.456Z,100.00
2023-08-25T03:13:27.571Z,100.00
2023-08-25T03:17:31.317Z,100.00
2023-08-25T03:21:35.772Z,100.00
2023-08-25T03:25:40.372Z,100.00
2023-08-25T03:29:44.151Z,100.00
2023-08-25T03:33:46.608Z,100.00
2023-08-25T03:37:51.805Z,100.00
2023-08-25T03:41:54.798Z,100.00
2023-08-25T03:45:58.487Z,100.00
2023-08-25T03:50:02.239Z,100.00
2023-08-25T03:54:07.564Z,100.00
2023-08-25T03:58:10.407Z,100.00
2023-08-25T04:02:13.317Z,100.00
2023-08-25T04:06:16.614Z,100.00
2023-08-25T04:10:21.089Z,100.00
2023-08-25T04:14:24.688Z,100.00
2023-08-25T04:18:28.117Z,100.00
2023-08-25T04:22:30.952Z,100.00
2023-08-25T04:26:35.130Z,100.00
2023-08-25T04:30:38.280Z,100.00
2023-08-25T04:34:41.047Z,100.00
2023-08-25T04:38:43.976Z,100.00
2023-08-25T04:42:48.493Z,100.00
2023-08-25T04:46:51.795Z,100.00
2023-08-25T04:50:54.836Z,100.00
2023-08-25T04:54:58.146Z,100.00
2023-08-25T04:59:01.905Z,100.00
2023-08-25T05:03:05.493Z,100.00
2023-08-25T05:07:09.070Z,100.00
2023-08-25T05:11:11.802Z,100.00
2023-08-25T05:15:16.082Z,100.00
2023-08-25T05:19:18.969Z,100.00
2023-08-25T05:23:21.415Z,100.00
2023-08-25T05:27:24.621Z,100.00
2023-08-25T05:31:29.351Z,100.00
2023-08-25T05:35:32.180Z,100.00
2023-08-25T05:39:35.269Z,98.08
2023-08-25T05:43:38.347Z,95.56
2023-08-25T05:47:43.243Z,95.54
2023-08-25T05:51:47.053Z,93.22
2023-08-25T05:55:50.779Z,91.30
2023-08-25T05:59:53.779Z,87.69
2023-08-25T06:03:58.535Z,88.69
2023-08-25T06:08:01.350Z,85.89
2023-08-25T06:12:04.583Z,86.09
2023-08-25T06:16:08.414Z,87.32
2023-08-25T06:20:14.044Z,84.43
2023-08-25T06:24:17.342Z,84.03
2023-08-25T06:28:20.173Z,81.92
2023-08-25T06:32:25.383Z,80.34
2023-08-25T06:36:30.008Z,76.49
2023-08-25T06:40:35.251Z,73.48
2023-08-25T06:44:38.430Z,73.14
2023-08-25T06:48:41.302Z,71.86
2023-08-25T06:52:47.910Z,74.23
2023-08-25T06:56:52.500Z,75.13
2023-08-25T07:00:55.835Z,76.67
2023-08-25T07:04:58.958Z,76.99
2023-08-25T07:09:02.449Z,75.52
2023-08-25T07:13:08.955Z,72.07
2023-08-25T07:17:12.281Z,69.40
2023-08-25T07:21:15.945Z,69.51
2023-08-25T07:25:20.433Z,71.67
2023-08-25T07:29:24.276Z,71.78
2023-08-25T07:33:27.670Z,73.10
2023-08-25T07:37:30.694Z,74.36
2023-08-25T07:41:36.449Z,72.96
2023-08-25T07:45:40.062Z,73.57
2023-08-25T07:49:43.409Z,73.84
2023-08-25T07:53:46.681Z,73.39
2023-08-25T07:57:51.363Z,74.95
2023-08-25T08:01:54.812Z,74.26
2023-08-25T08:05:59.770Z,76.53
2023-08-25T08:10:04.406Z,74.11
2023-08-25T08:14:09.191Z,73.90
2023-08-25T08:18:12.849Z,73.63
2023-08-25T08:22:16.380Z,74.11
2023-08-25T08:26:19.732Z,74.26
2023-08-25T08:30:24.028Z,71.18
2023-08-25T08:34:27.376Z,70.36
2023-08-25T08:38:31.504Z,70.83
2023-08-25T08:42:35.558Z,70.49
2023-08-25T08:46:43.048Z,70.16
2023-08-25T08:50:49.745Z,70.05
2023-08-25T08:54:52.543Z,70.41
2023-08-25T08:58:56.113Z,71.80
2023-08-25T09:03:03.163Z,71.56
2023-08-25T09:07:08.450Z,71.93
2023-08-25T09:11:11.681Z,70.32
2023-08-25T09:15:33.980Z,70.15
2023-08-25T09:19:39.370Z,67.59
2023-08-25T09:23:54.164Z,69.46
2023-08-25T09:28:00.052Z,68.33
2023-08-25T09:32:06.644Z,67.25
2023-08-25T09:36:12.080Z,70.52
2023-08-25T09:40:16.702Z,69.00
2023-08-25T09:44:19.897Z,70.65
2023-08-25T09:48:23.554Z,71.81
2023-08-25T09:52:29.138Z,74.74
2023-08-25T09:56:32.845Z,75.99
2023-08-25T10:00:37.077Z,75.63
2023-08-25T10:04:42.998Z,80.03
2023-08-25T10:08:48.727Z,78.00
2023-08-25T10:12:52.283Z,75.83
2023-08-25T10:16:56.120Z,76.43
2023-08-25T10:21:00.967Z,73.28
2023-08-25T10:25:06.412Z,74.95
2023-08-25T10:29:10.650Z,73.86
2023-08-25T10:33:14.555Z,72.81
2023-08-25T10:37:27.542Z,75.77
2023-08-25T10:41:44.900Z,78.53
2023-08-25T10:45:52.749Z,86.48
2023-08-25T10:49:56.260Z,93.69
2023-08-25T10:53:59.676Z,93.28
2023-08-25T10:58:08.648Z,92.07
2023-08-25T11:02:12.269Z,94.40
2023-08-25T11:06:38.812Z,94.13
2023-08-25T11:10:43.707Z,98.22
2023-08-25T11:14:49.946Z,95.58
2023-08-25T11:18:53.802Z,93.17
2023-08-25T11:23:17.022Z,90.08
2023-08-25T11:27:25.450Z,91.65
2023-08-25T11:31:31.353Z,89.80
2023-08-25T11:35:34.378Z,94.59
2023-08-25T11:39:44.748Z,86.74
2023-08-25T11:43:49.181Z,93.20
2023-08-25T11:47:56.657Z,90.27
2023-08-25T11:52:01.731Z,78.90
2023-08-25T11:56:07.003Z,79.50
2023-08-25T12:00:12.391Z,77.50
2023-08-25T12:04:30.096Z,76.71
2023-08-25T12:08:33.496Z,73.87
2023-08-25T12:12:39.661Z,74.73
2023-08-25T12:16:44.700Z,75.58
2023-08-25T12:20:49.649Z,72.06
2023-08-25T12:24:53.774Z,74.18
2023-08-25T12:28:58.117Z,74.35
2023-08-25T12:33:01.552Z,80.24
2023-08-25T12:37:05.709Z,80.37
2023-08-25T12:41:08.805Z,78.90
2023-08-25T12:45:12.188Z,78.62
2023-08-25T12:49:16.748Z,77.90
2023-08-25T12:53:21.569Z,76.39
2023-08-25T12:57:24.732Z,77.50
2023-08-25T13:01:27.784Z,75.10
2023-08-25T13:05:32.071Z,73.25
2023-08-25T13:09:38.477Z,74.92
2023-08-25T13:13:41.652Z,71.44
2023-08-25T13:17:46.171Z,74.75
2023-08-25T13:21:49.083Z,72.63
2023-08-25T13:25:53.467Z,73.36
2023-08-25T13:29:56.589Z,72.77
2023-08-25T13:33:59.898Z,72.38
2023-08-25T13:38:03.787Z,72.18
2023-08-25T13:42:09.490Z,71.68
2023-08-25T13:46:12.926Z,72.38
2023-08-25T13:50:16.031Z,72.62
2023-08-25T13:54:19.702Z,70.66
2023-08-25T13:58:23.996Z,71.06
2023-08-25T14:02:28.098Z,71.23
2023-08-25T14:06:31.646Z,71.64
2023-08-25T14:10:34.919Z,72.95
2023-08-25T14:14:39.456Z,74.23
2023-08-25T14:18:45.723Z,75.46
2023-08-25T14:22:49.038Z,74.13
2023-08-25T14:26:53.218Z,74.13
2023-08-25T14:30:57.719Z,74.03
2023-08-25T14:35:01.028Z,73.97
2023-08-25T14:39:04.748Z,74.04
2023-08-25T14:43:08.441Z,73.39
2023-08-25T14:47:12.433Z,74.17
2023-08-25T14:51:17.114Z,75.37
2023-08-25T14:55:20.182Z,74.53
2023-08-25T14:59:25.191Z,74.94
2023-08-25T15:03:31.016Z,75.75
2023-08-25T15:07:35.237Z,75.86
2023-08-25T15:11:38.106Z,74.81
2023-08-25T15:15:41.014Z,74.31
2023-08-25T15:19:45.624Z,73.97
2023-08-25T15:23:49.545Z,74.75
2023-08-25T15:27:53.067Z,75.29
2023-08-25T15:31:55.876Z,76.30
2023-08-25T15:36:00.888Z,76.93
2023-08-25T15:40:04.272Z,77.49
2023-08-25T15:44:08.509Z,77.79
2023-08-25T15:48:11.760Z,77.13
2023-08-25T15:52:16.163Z,76.89
2023-08-25T15:56:19.770Z,76.88
2023-08-25T16:00:22.728Z,75.88
2023-08-25T16:04:26.429Z,76.37
2023-08-25T16:08:31.400Z,76.75
2023-08-25T16:12:33.983Z,76.01
2023-08-25T16:16:37.809Z,76.93
2023-08-25T16:20:41.090Z,77.36
2023-08-25T16:24:45.735Z,78.61
2023-08-25T16:28:51.323Z,79.97
2023-08-25T16:32:55.395Z,80.69
2023-08-25T16:37:00.804Z,81.36
2023-08-25T16:41:05.296Z,82.69
2023-08-25T16:45:09.621Z,84.78
2023-08-25T16:49:13.265Z,86.03
2023-08-25T16:53:16.797Z,87.32
2023-08-25T16:57:22.522Z,86.96
2023-08-25T17:01:26.272Z,87.71
2023-08-25T17:05:31.179Z,88.98
2023-08-25T17:09:33.764Z,89.77
2023-08-25T17:13:38.515Z,90.32
2023-08-25T17:17:42.953Z,90.21
2023-08-25T17:21:46.272Z,91.64
2023-08-25T17:25:49.373Z,92.76
2023-08-25T17:29:54.533Z,90.24
2023-08-25T17:33:57.023Z,91.76
2023-08-25T17:38:00.508Z,94.24
2023-08-25T17:42:03.452Z,93.45
2023-08-25T17:46:08.895Z,93.40
2023-08-25T17:50:12.212Z,93.07
2023-08-25T17:54:14.889Z,92.94
2023-08-25T17:58:19.353Z,91.97
2023-08-25T18:02:23.963Z,93.29
2023-08-25T18:06:28.968Z,92.36
2023-08-25T18:10:33.684Z,93.23
2023-08-25T18:14:44.099Z,92.67
2023-08-25T18:18:49.853Z,94.65
2023-08-25T18:22:53.419Z,95.09
2023-08-25T18:26:57.262Z,95.29
2023-08-25T18:31:04.334Z,94.64
2023-08-25T18:35:09.504Z,94.24
2023-08-25T18:39:12.572Z,95.91
2023-08-25T18:43:15.778Z,93.29
2023-08-25T18:47:18.468Z,94.10
2023-08-25T18:51:25.150Z,92.65
2023-08-25T18:55:29.851Z,91.50
2023-08-25T18:59:32.701Z,91.24
2023-08-25T19:03:36.703Z,91.46
2023-08-25T19:07:41.210Z,90.23
2023-08-25T19:11:44.535Z,89.58
2023-08-25T19:15:57.652Z,90.84
2023-08-25T19:20:00.505Z,90.26
2023-08-25T19:24:06.096Z,91.76
2023-08-25T19:28:09.556Z,90.81
2023-08-25T19:32:12.404Z,91.05
2023-08-25T19:36:16.162Z,91.18
2023-08-25T19:40:21.445Z,91.62
2023-08-25T19:44:24.222Z,91.21
2023-08-25T19:48:30.376Z,92.32
2023-08-25T19:52:33.287Z,94.22
2023-08-25T19:56:37.745Z,95.44
2023-08-25T20:00:41.464Z,95.53
2023-08-25T20:04:48.201Z,96.21
2023-08-25T20:08:51.058Z,99.03
2023-08-25T20:12:57.086Z,98.31
2023-08-25T20:16:59.936Z,99.00
2023-08-25T20:21:03.146Z,99.47
2023-08-25T20:25:06.620Z,100.00
2023-08-25T20:29:11.989Z,100.00
2023-08-25T20:33:15.236Z,100.00
2023-08-25T20:37:18.032Z,100.00
2023-08-25T20:41:20.928Z,100.00
2023-08-25T20:45:25.787Z,100.00
2023-08-25T20:49:28.449Z,100.00
2023-08-25T20:53:31.898Z,100.00
2023-08-25T20:57:34.967Z,100.00
2023-08-25T21:01:39.810Z,100.00
2023-08-25T21:05:43.575Z,100.00
2023-08-25T21:09:48.459Z,100.00
2023-08-25T21:13:52.638Z,100.00
2023-08-25T21:17:57.471Z,100.00
2023-08-25T21:22:00.463Z,100.00
2023-08-25T21:26:06.590Z,100.00
2023-08-25T21:30:11.759Z,100.00
2023-08-25T21:34:15.888Z,100.00
2023-08-25T21:38:19.602Z,100.00
2023-08-25T21:42:23.236Z,100.00
2023-08-25T21:46:29.881Z,100.00
2023-08-25T21:50:34.581Z,100.00
2023-08-25T21:54:37.471Z,100.00
2023-08-25T21:58:41.010Z,100.00
2023-08-25T22:02:44.268Z,100.00
2023-08-25T22:06:48.727Z,100.00
2023-08-25T22:10:51.873Z,100.00
2023-08-25T22:14:55.270Z,100.00
2023-08-25T22:18:58.249Z,100.00
2023-08-25T22:23:05.452Z,100.00
2023-08-25T22:27:08.610Z,100.00
2023-08-25T22:31:11.852Z,100.00
2023-08-25T22:35:14.830Z,100.00
2023-08-25T22:39:18.760Z,100.00
2023-08-25T22:43:21.715Z,100.00
2023-08-25T22:47:24.237Z,100.00
2023-08-25T22:51:26.892Z,100.00
2023-08-25T22:55:34.312Z,100.00
2023-08-25T22:59:39.333Z,100.00
2023-08-25T23:03:42.076Z,100.00
2023-08-25T23:07:46.534Z,100.00
2023-08-25T23:11:50.998Z,100.00
2023-08-25T23:15:53.590Z,100.00
2023-08-25T23:19:56.457Z,100.00
2023-08-25T23:23:59.229Z,100.00
2023-08-25T23:28:04.064Z,100.00
